createdAt,value
2018-10-16T00:01:41.473Z,16.83
2018-10-16T00:04:09.698Z,14.10
2018-10-16T00:06:37.837Z,16.70
2018-10-16T00:09:07.410Z,13.07
2018-10-16T00:11:35.845Z,14.43
2018-10-16T00:14:04.063Z,14.97
2018-10-16T00:16:32.249Z,12.90
2018-10-16T00:19:00.501Z,12.97
2018-10-16T00:21:28.730Z,12.63
2018-10-16T00:23:56.897Z,12.40
2018-10-16T00:26:25.210Z,12.87
2018-10-16T00:28:53.385Z,13.53
2018-10-16T00:31:21.579Z,12.40
2018-10-16T00:33:49.790Z,14.60
2018-10-16T00:36:17.975Z,12.17
2018-10-16T00:38:46.236Z,12.03
2018-10-16T00:41:14.529Z,12.20
2018-10-16T00:43:42.705Z,14.20
2018-10-16T00:46:10.907Z,16.13
2018-10-16T00:48:39.086Z,20.20
2018-10-16T00:51:07.268Z,14.97
2018-10-16T00:53:35.555Z,17.57
2018-10-16T00:56:03.753Z,16.30
2018-10-16T00:58:31.975Z,13.50
2018-10-16T01:01:00.183Z,16.00
2018-10-16T01:03:28.456Z,16.30
2018-10-16T01:05:56.730Z,14.90
2018-10-16T01:08:24.984Z,13.97
2018-10-16T01:10:53.154Z,20.43
2018-10-16T01:13:21.338Z,13.50
2018-10-16T01:15:49.502Z,12.63
2018-10-16T01:18:17.691Z,14.07
2018-10-16T01:20:45.873Z,14.37
2018-10-16T01:23:14.037Z,17.10
2018-10-16T01:25:42.218Z,17.87
2018-10-16T01:28:10.390Z,17.47
2018-10-16T01:30:38.590Z,16.57
2018-10-16T01:33:06.780Z,20.50
2018-10-16T01:35:34.997Z,18.60
2018-10-16T01:38:03.170Z,15.80
2018-10-16T01:40:31.357Z,20.53
2018-10-16T01:42:59.544Z,16.33
2018-10-16T01:45:27.703Z,17.77
2018-10-16T01:47:55.869Z,13.97
2018-10-16T01:50:24.042Z,13.80
2018-10-16T01:52:52.194Z,16.27
2018-10-16T01:55:20.366Z,15.37
2018-10-16T01:57:48.517Z,18.20
2018-10-16T02:00:16.674Z,15.70
2018-10-16T02:02:44.898Z,18.13
2018-10-16T02:05:13.002Z,18.33
2018-10-16T02:07:41.157Z,14.20
2018-10-16T02:10:09.296Z,20.43
2018-10-16T02:12:37.459Z,16.03
2018-10-16T02:15:06.737Z,17.90
2018-10-16T02:17:34.877Z,16.90
2018-10-16T02:20:03.087Z,16.67
2018-10-16T02:22:31.229Z,19.73
2018-10-16T02:24:59.385Z,18.50
2018-10-16T02:27:27.545Z,17.40
2018-10-16T02:29:56.645Z,18.53
2018-10-16T02:32:24.807Z,19.27
2018-10-16T02:34:52.949Z,18.30
2018-10-16T02:37:21.100Z,18.73
2018-10-16T02:39:49.234Z,18.77
2018-10-16T02:42:17.398Z,17.67
2018-10-16T02:44:45.579Z,19.00
2018-10-16T02:47:13.765Z,18.07
2018-10-16T02:49:41.924Z,19.37
2018-10-16T02:52:10.098Z,17.67
2018-10-16T02:54:38.274Z,18.03
2018-10-16T02:57:06.978Z,18.37
2018-10-16T02:59:35.141Z,17.20
2018-10-16T03:02:03.405Z,17.77
2018-10-16T03:04:31.574Z,14.53
2018-10-16T03:06:59.770Z,16.77
2018-10-16T03:09:27.952Z,17.73
2018-10-16T03:11:56.129Z,19.80
2018-10-16T03:14:24.321Z,18.70
2018-10-16T03:16:52.497Z,18.47
2018-10-16T03:19:20.667Z,18.30
2018-10-16T03:21:48.842Z,16.93
2018-10-16T03:24:17.021Z,18.77
2018-10-16T03:26:45.206Z,22.30
2018-10-16T03:29:13.389Z,17.07
2018-10-16T03:31:41.582Z,17.30
2018-10-16T03:34:09.962Z,19.20
2018-10-16T03:36:39.181Z,18.87
2018-10-16T03:39:08.886Z,16.33
2018-10-16T03:41:37.130Z,17.50
2018-10-16T03:44:09.911Z,17.50
2018-10-16T03:46:38.151Z,19.40
2018-10-16T03:49:06.602Z,19.40
2018-10-16T03:51:34.794Z,22.27
2018-10-16T03:54:03.145Z,19.43
2018-10-16T03:56:31.310Z,17.47
2018-10-16T03:58:59.469Z,17.80
2018-10-16T04:01:27.621Z,21.23
2018-10-16T04:03:55.805Z,18.97
2018-10-16T04:06:23.982Z,19.07
2018-10-16T04:08:52.798Z,17.97
2018-10-16T04:11:21.061Z,19.53
2018-10-16T04:13:49.767Z,17.63
2018-10-16T04:16:18.068Z,18.40
2018-10-16T04:18:46.201Z,22.63
2018-10-16T04:21:14.361Z,19.80
2018-10-16T04:23:43.173Z,17.50
2018-10-16T04:26:11.957Z,17.33
2018-10-16T04:28:40.214Z,19.40
2018-10-16T04:31:09.630Z,19.87
2018-10-16T04:33:37.810Z,20.03
2018-10-16T04:36:06.019Z,16.40
2018-10-16T04:38:34.210Z,19.53
2018-10-16T04:41:02.382Z,17.37
2018-10-16T04:43:30.611Z,26.20
2018-10-16T04:45:58.758Z,19.73
2018-10-16T04:48:26.962Z,19.17
2018-10-16T04:50:55.164Z,20.80
2018-10-16T04:53:23.336Z,19.80
2018-10-16T04:55:51.513Z,20.70
2018-10-16T04:58:19.727Z,22.07
2018-10-16T05:00:47.900Z,23.00
2018-10-16T05:03:16.083Z,21.23
2018-10-16T05:05:44.242Z,18.23
2018-10-16T05:08:12.417Z,20.40
2018-10-16T05:10:40.601Z,18.80
2018-10-16T05:13:08.789Z,20.73
2018-10-16T05:15:36.937Z,23.07
2018-10-16T05:18:05.112Z,18.07
2018-10-16T05:20:33.278Z,17.80
2018-10-16T05:23:01.505Z,17.57
2018-10-16T05:25:30.856Z,21.83
2018-10-16T05:27:59.112Z,20.80
2018-10-16T05:30:27.633Z,19.23
2018-10-16T05:32:55.943Z,19.83
2018-10-16T05:35:24.241Z,19.17
2018-10-16T05:37:52.982Z,20.33
2018-10-16T05:40:21.189Z,24.63
2018-10-16T05:42:49.365Z,17.90
2018-10-16T05:45:17.548Z,20.27
2018-10-16T05:47:46.068Z,18.60
2018-10-16T05:50:14.236Z,25.43
2018-10-16T05:52:42.493Z,18.33
2018-10-16T05:55:10.997Z,17.90
2018-10-16T05:57:39.190Z,20.50
2018-10-16T06:00:18.702Z,16.30
2018-10-16T06:02:47.600Z,20.10
2018-10-16T06:05:15.777Z,19.10
2018-10-16T06:07:44.365Z,23.93
2018-10-16T06:10:12.929Z,16.83
2018-10-16T06:12:41.146Z,21.60
2018-10-16T06:15:10.022Z,23.43
2018-10-16T06:17:38.362Z,23.10
2018-10-16T06:20:08.444Z,19.23
2018-10-16T06:22:36.626Z,21.60
2018-10-16T06:25:05.412Z,23.20
2018-10-16T06:27:33.582Z,23.30
2018-10-16T06:30:01.765Z,21.83
2018-10-16T06:32:29.927Z,23.00
2018-10-16T06:34:58.217Z,19.63
2018-10-16T06:37:26.409Z,17.40
2018-10-16T06:39:54.586Z,20.83
2018-10-16T06:42:23.105Z,20.80
2018-10-16T06:44:51.557Z,19.97
2018-10-16T06:47:19.803Z,17.50
2018-10-16T06:49:48.427Z,18.50
2018-10-16T06:52:16.672Z,27.50
2018-10-16T06:54:44.917Z,23.23
2018-10-16T06:57:13.050Z,22.43
2018-10-16T06:59:41.231Z,17.10
2018-10-16T07:02:09.462Z,26.53
2018-10-16T07:04:37.661Z,19.60
2018-10-16T07:07:06.199Z,17.90
2018-10-16T07:09:34.411Z,25.17
2018-10-16T07:12:02.620Z,20.07
2018-10-16T07:14:30.814Z,19.97
2018-10-16T07:16:58.981Z,17.90
2018-10-16T07:19:27.153Z,21.70
2018-10-16T07:21:55.325Z,22.87
2018-10-16T07:24:23.487Z,19.50
2018-10-16T07:26:51.686Z,19.70
2018-10-16T07:29:19.849Z,18.90
2018-10-16T07:31:48.014Z,20.53
2018-10-16T07:34:16.189Z,21.63
2018-10-16T07:36:44.352Z,17.90
2018-10-16T07:39:13.526Z,18.40
2018-10-16T07:41:42.199Z,17.83
2018-10-16T07:44:10.994Z,18.83
2018-10-16T07:46:39.181Z,21.37
2018-10-16T07:49:08.366Z,19.90
2018-10-16T07:51:36.641Z,16.77
2018-10-16T07:54:05.379Z,19.30
2018-10-16T07:56:33.574Z,18.67
2018-10-16T07:59:01.782Z,16.90
2018-10-16T08:01:30.273Z,18.33
2018-10-16T08:03:58.470Z,19.33
2018-10-16T08:06:26.643Z,19.30
2018-10-16T08:08:54.822Z,17.07
2018-10-16T08:11:23.053Z,16.73
2018-10-16T08:13:51.191Z,17.80
2018-10-16T08:16:19.394Z,18.67
2018-10-16T08:18:47.574Z,17.23
2018-10-16T08:21:15.758Z,21.17
2018-10-16T08:23:43.978Z,16.27
2018-10-16T08:26:12.182Z,18.23
2018-10-16T08:28:40.364Z,18.73
2018-10-16T08:31:08.578Z,18.77
2018-10-16T08:33:36.778Z,16.10
2018-10-16T08:36:05.250Z,19.53
2018-10-16T08:38:47.078Z,18.07
2018-10-16T08:41:15.253Z,14.10
2018-10-16T08:44:08.621Z,14.17
2018-10-16T08:46:48.126Z,13.83
2018-10-16T08:49:27.809Z,16.20
2018-10-16T08:51:57.217Z,13.03
2018-10-16T08:54:25.387Z,11.97
2018-10-16T08:56:53.555Z,13.57
2018-10-16T08:59:21.717Z,12.80
2018-10-16T09:01:49.874Z,12.33
2018-10-16T09:04:18.049Z,14.93
2018-10-16T09:06:46.236Z,12.37
2018-10-16T09:09:17.582Z,13.00
2018-10-16T09:11:47.115Z,16.23
2018-10-16T09:14:15.905Z,16.40
2018-10-16T09:16:44.069Z,14.63
2018-10-16T09:19:12.255Z,13.60
2018-10-16T09:21:40.446Z,13.93
2018-10-16T09:24:08.638Z,13.57
2018-10-16T09:26:36.806Z,15.70
2018-10-16T09:29:05.170Z,16.50
2018-10-16T09:31:33.337Z,15.17
2018-10-16T09:34:01.539Z,16.17
2018-10-16T09:36:29.671Z,13.13
2018-10-16T09:38:57.829Z,16.47
2018-10-16T09:41:26.010Z,15.97
2018-10-16T09:43:54.169Z,11.47
2018-10-16T09:46:22.320Z,13.37
2018-10-16T09:48:50.478Z,11.13
2018-10-16T09:51:18.657Z,12.27
2018-10-16T09:53:46.854Z,12.00
2018-10-16T09:56:15.024Z,11.83
2018-10-16T09:58:43.194Z,10.33
2018-10-16T10:01:16.670Z,10.53
2018-10-16T10:03:44.897Z,12.80
2018-10-16T10:06:13.062Z,11.13
2018-10-16T10:08:41.209Z,11.60
2018-10-16T10:11:09.515Z,8.50
2018-10-16T10:13:37.734Z,9.07
2018-10-16T10:16:06.508Z,10.20
2018-10-16T10:18:34.678Z,8.67
2018-10-16T10:21:02.835Z,9.93
2018-10-16T10:23:31.078Z,10.77
2018-10-16T10:25:59.165Z,11.00
2018-10-16T10:28:27.325Z,9.53
2018-10-16T10:30:55.496Z,14.40
2018-10-16T10:33:23.634Z,9.10
2018-10-16T10:35:51.811Z,12.63
2018-10-16T10:38:19.990Z,9.60
2018-10-16T10:40:48.183Z,9.50
2018-10-16T10:43:16.341Z,9.30
2018-10-16T10:45:44.505Z,9.37
2018-10-16T10:48:12.666Z,12.47
2018-10-16T10:50:41.075Z,9.53
2018-10-16T10:53:08.996Z,9.87
2018-10-16T10:55:37.455Z,10.20
2018-10-16T10:58:05.979Z,10.47
2018-10-16T11:00:34.176Z,10.83
2018-10-16T11:03:02.369Z,11.27
2018-10-16T11:05:30.498Z,9.60
2018-10-16T11:07:58.657Z,10.27
2018-10-16T11:10:26.846Z,10.40
2018-10-16T11:12:54.996Z,9.60
2018-10-16T11:15:23.161Z,8.97
2018-10-16T11:17:51.327Z,10.50
2018-10-16T11:20:19.478Z,9.00
2018-10-16T11:22:47.674Z,8.80
2018-10-16T11:25:15.833Z,11.83
2018-10-16T11:27:43.978Z,9.27
2018-10-16T11:30:15.085Z,9.77
2018-10-16T11:32:43.393Z,8.80
2018-10-16T11:35:12.921Z,14.07
2018-10-16T11:37:41.097Z,9.80
2018-10-16T11:40:09.727Z,13.10
2018-10-16T11:42:37.881Z,9.27
2018-10-16T11:45:07.081Z,9.53
2018-10-16T11:47:35.366Z,11.20
2018-10-16T11:50:03.656Z,11.50
2018-10-16T11:52:31.775Z,11.53
2018-10-16T11:54:59.922Z,9.93
2018-10-16T11:57:28.089Z,11.57
2018-10-16T11:59:56.417Z,10.07
2018-10-16T12:02:25.139Z,10.33
2018-10-16T12:04:54.595Z,12.93
2018-10-16T12:07:22.817Z,10.37
2018-10-16T12:09:52.552Z,9.13
2018-10-16T12:12:20.821Z,9.87
2018-10-16T12:14:48.974Z,10.83
2018-10-16T12:17:22.150Z,11.30
2018-10-16T12:20:00.776Z,8.87
2018-10-16T12:22:28.909Z,9.70
2018-10-16T12:24:57.101Z,13.27
2018-10-16T12:27:25.240Z,9.73
2018-10-16T12:29:53.425Z,10.00
2018-10-16T12:32:21.598Z,9.00
2018-10-16T12:34:49.734Z,10.10
2018-10-16T12:37:17.947Z,10.47
2018-10-16T12:39:46.182Z,10.20
2018-10-16T12:42:14.384Z,9.37
2018-10-16T12:44:42.529Z,9.23
2018-10-16T12:47:10.838Z,13.33
2018-10-16T12:49:38.883Z,7.60
2018-10-16T12:52:07.071Z,7.87
2018-10-16T12:54:35.272Z,16.13
2018-10-16T12:57:03.525Z,9.17
2018-10-16T12:59:31.688Z,10.03
2018-10-16T13:01:59.881Z,8.87
2018-10-16T13:04:28.047Z,9.00
2018-10-16T13:06:56.222Z,8.07
2018-10-16T13:09:24.414Z,9.73
2018-10-16T13:11:52.604Z,10.00
2018-10-16T13:14:21.625Z,11.80
2018-10-16T13:16:49.932Z,11.23
2018-10-16T13:19:18.037Z,11.90
2018-10-16T13:21:46.209Z,13.03
2018-10-16T13:24:14.401Z,9.40
2018-10-16T13:26:42.599Z,9.47
2018-10-16T13:29:10.859Z,11.53
2018-10-16T13:31:39.005Z,9.53
2018-10-16T13:34:07.221Z,16.03
2018-10-16T13:36:35.378Z,9.17
2018-10-16T13:39:04.049Z,11.40
2018-10-16T13:41:32.232Z,8.47
2018-10-16T13:44:00.467Z,9.10
2018-10-16T13:46:28.613Z,11.27
2018-10-16T13:48:56.807Z,9.10
2018-10-16T13:51:24.983Z,11.60
2018-10-16T13:53:53.182Z,10.20
2018-10-16T13:56:21.377Z,9.57
2018-10-16T13:58:49.577Z,10.47
2018-10-16T14:01:17.740Z,15.20
2018-10-16T14:03:45.925Z,8.67
2018-10-16T14:06:14.115Z,11.60
2018-10-16T14:08:42.317Z,11.23
2018-10-16T14:11:10.518Z,11.73
2018-10-16T14:13:38.701Z,11.90
2018-10-16T14:16:07.017Z,10.00
2018-10-16T14:18:35.069Z,9.20
2018-10-16T14:21:03.248Z,13.70
2018-10-16T14:23:31.452Z,12.60
2018-10-16T14:25:59.645Z,9.40
2018-10-16T14:28:27.835Z,14.93
2018-10-16T14:30:56.010Z,9.80
2018-10-16T14:33:24.193Z,13.13
2018-10-16T14:35:52.365Z,8.90
2018-10-16T14:38:20.562Z,11.97
2018-10-16T14:40:48.735Z,10.30
2018-10-16T14:43:16.918Z,10.37
2018-10-16T14:45:45.106Z,9.93
2018-10-16T14:48:13.371Z,9.37
2018-10-16T14:50:41.469Z,11.00
2018-10-16T14:53:09.669Z,10.37
2018-10-16T14:55:37.867Z,13.00
2018-10-16T14:58:06.118Z,10.27
2018-10-16T15:00:34.242Z,10.90
2018-10-16T15:03:02.422Z,11.47
2018-10-16T15:05:30.631Z,9.33
2018-10-16T15:07:58.859Z,12.53
2018-10-16T15:10:27.118Z,9.17
2018-10-16T15:12:55.266Z,9.03
2018-10-16T15:15:23.554Z,11.33
2018-10-16T15:17:51.712Z,9.80
2018-10-16T15:20:19.905Z,11.97
2018-10-16T15:22:48.091Z,9.23
2018-10-16T15:25:16.273Z,8.10
2018-10-16T15:27:44.483Z,11.80
2018-10-16T15:30:12.669Z,13.67
2018-10-16T15:32:40.853Z,12.17
2018-10-16T15:35:10.293Z,8.20
2018-10-16T15:37:38.882Z,13.93
2018-10-16T15:40:08.504Z,13.20
2018-10-16T15:42:36.646Z,8.07
2018-10-16T15:45:06.247Z,8.87
2018-10-16T15:47:34.437Z,10.23
2018-10-16T15:50:02.908Z,11.23
2018-10-16T15:52:31.173Z,12.30
2018-10-16T15:54:59.364Z,10.27
2018-10-16T15:57:27.546Z,11.10
2018-10-16T15:59:55.761Z,11.00
2018-10-16T16:02:24.751Z,10.43
2018-10-16T16:04:52.909Z,10.73
2018-10-16T16:07:21.100Z,11.77
2018-10-16T16:09:49.282Z,12.40
2018-10-16T16:12:17.449Z,9.47
2018-10-16T16:14:45.647Z,16.13
2018-10-16T16:17:13.889Z,12.30
2018-10-16T16:19:42.069Z,12.77
2018-10-16T16:22:10.290Z,12.70
2018-10-16T16:24:38.445Z,13.70
2018-10-16T16:27:06.638Z,11.97
2018-10-16T16:29:34.878Z,15.60
2018-10-16T16:32:03.064Z,17.67
2018-10-16T16:34:31.272Z,14.70
2018-10-16T16:36:59.452Z,21.23
2018-10-16T16:39:27.709Z,18.50
2018-10-16T16:41:55.836Z,17.63
2018-10-16T16:44:24.023Z,14.43
2018-10-16T16:46:52.203Z,18.37
2018-10-16T16:49:20.416Z,14.20
2018-10-16T16:51:48.572Z,13.60
2018-10-16T16:54:16.814Z,15.63
2018-10-16T16:56:44.990Z,15.10
2018-10-16T16:59:13.162Z,19.60
2018-10-16T17:01:41.329Z,20.33
2018-10-16T17:04:09.578Z,16.47
2018-10-16T17:06:37.723Z,17.17
2018-10-16T17:09:09.063Z,14.57
2018-10-16T17:11:37.230Z,16.33
2018-10-16T17:14:05.711Z,12.07
2018-10-16T17:16:33.822Z,13.00
2018-10-16T17:19:01.982Z,14.93
2018-10-16T17:21:30.201Z,16.10
2018-10-16T17:23:58.377Z,13.10
2018-10-16T17:26:26.780Z,15.50
2018-10-16T17:28:54.689Z,13.63
2018-10-16T17:31:22.825Z,17.40
2018-10-16T17:33:50.989Z,17.20
2018-10-16T17:36:19.157Z,14.70
2018-10-16T17:38:47.376Z,16.20
2018-10-16T17:41:15.529Z,16.57
2018-10-16T17:43:43.724Z,18.40
2018-10-16T17:46:12.419Z,16.07
2018-10-16T17:48:40.638Z,16.90
2018-10-16T17:51:08.910Z,13.03
2018-10-16T17:53:37.063Z,17.03
2018-10-16T17:56:05.419Z,13.90
2018-10-16T17:58:33.607Z,17.77
2018-10-16T18:01:01.807Z,19.77
2018-10-16T18:03:29.993Z,14.33
2018-10-16T18:05:58.228Z,16.17
2018-10-16T18:08:26.460Z,14.53
2018-10-16T18:10:54.670Z,17.13
2018-10-16T18:13:22.866Z,16.53
2018-10-16T18:15:51.070Z,14.97
2018-10-16T18:18:19.369Z,17.17
2018-10-16T18:20:47.496Z,16.93
2018-10-16T18:23:15.709Z,14.97
2018-10-16T18:25:43.915Z,17.00
2018-10-16T18:28:12.098Z,15.43
2018-10-16T18:30:40.378Z,13.83
2018-10-16T18:33:08.672Z,14.90
2018-10-16T18:35:36.934Z,21.03
2018-10-16T18:38:05.282Z,15.20
2018-10-16T18:40:33.482Z,16.00
2018-10-16T18:43:01.731Z,20.23
2018-10-16T18:45:29.917Z,16.70
2018-10-16T18:47:58.182Z,16.63
2018-10-16T18:50:26.552Z,16.80
2018-10-16T18:52:54.822Z,20.47
2018-10-16T18:55:23.116Z,22.27
2018-10-16T18:57:51.366Z,16.80
2018-10-16T19:00:20.142Z,18.47
2018-10-16T19:02:48.829Z,19.77
2018-10-16T19:05:17.112Z,15.47
2018-10-16T19:07:45.400Z,14.23
2018-10-16T19:10:13.654Z,16.53
2018-10-16T19:12:42.209Z,14.43
2018-10-16T19:15:12.026Z,12.87
2018-10-16T19:17:40.297Z,16.40
2018-10-16T19:20:10.156Z,16.40
2018-10-16T19:22:38.414Z,15.73
2018-10-16T19:25:07.401Z,15.63
2018-10-16T19:27:35.645Z,17.13
2018-10-16T19:30:03.821Z,15.43
2018-10-16T19:32:32.022Z,17.47
2018-10-16T19:35:00.220Z,16.73
2018-10-16T19:37:28.413Z,18.87
2018-10-16T19:39:56.627Z,16.80
2018-10-16T19:42:24.823Z,16.40
2018-10-16T19:44:53.053Z,17.63
2018-10-16T19:47:21.236Z,20.00
2018-10-16T19:49:49.480Z,20.10
2018-10-16T19:52:17.670Z,15.80
2018-10-16T19:54:45.889Z,19.10
2018-10-16T19:57:14.193Z,15.00
2018-10-16T19:59:42.378Z,17.40
2018-10-16T20:02:10.584Z,15.63
2018-10-16T20:04:38.981Z,18.67
2018-10-16T20:07:07.248Z,21.77
2018-10-16T20:09:35.388Z,16.10
2018-10-16T20:12:03.559Z,18.00
2018-10-16T20:14:31.757Z,15.50
2018-10-16T20:16:59.961Z,19.00
2018-10-16T20:19:28.232Z,16.40
2018-10-16T20:21:56.414Z,20.43
2018-10-16T20:24:24.586Z,17.17
2018-10-16T20:26:52.772Z,13.20
2018-10-16T20:29:20.970Z,15.13
2018-10-16T20:31:49.232Z,13.20
2018-10-16T20:34:17.433Z,15.93
2018-10-16T20:36:45.630Z,16.97
2018-10-16T20:39:14.804Z,15.83
2018-10-16T20:41:43.970Z,15.83
2018-10-16T20:44:12.146Z,16.37
2018-10-16T20:46:40.346Z,18.63
2018-10-16T20:49:08.563Z,16.00
2018-10-16T20:51:37.553Z,15.73
2018-10-16T20:54:05.769Z,17.17
2018-10-16T20:56:34.083Z,19.13
2018-10-16T20:59:02.302Z,16.23
2018-10-16T21:01:30.499Z,19.93
2018-10-16T21:03:58.673Z,16.73
2018-10-16T21:06:27.040Z,17.07
2018-10-16T21:08:56.294Z,23.20
2018-10-16T21:11:24.410Z,15.40
2018-10-16T21:13:52.571Z,15.80
2018-10-16T21:16:20.757Z,19.20
2018-10-16T21:18:48.897Z,15.30
2018-10-16T21:21:17.106Z,15.23
2018-10-16T21:23:45.241Z,13.20
2018-10-16T21:26:13.417Z,17.93
2018-10-16T21:28:41.573Z,18.40
2018-10-16T21:31:09.741Z,20.20
2018-10-16T21:33:37.909Z,19.10
2018-10-16T21:36:06.109Z,18.27
2018-10-16T21:38:34.269Z,16.27
2018-10-16T21:41:02.429Z,17.37
2018-10-16T21:43:30.589Z,15.87
2018-10-16T21:45:58.777Z,21.33
2018-10-16T21:48:27.009Z,16.57
2018-10-16T21:50:55.160Z,18.20
2018-10-16T21:53:23.334Z,17.40
2018-10-16T21:55:51.485Z,18.57
2018-10-16T21:58:19.648Z,19.50
2018-10-16T22:00:53.067Z,15.93
2018-10-16T22:03:21.225Z,18.73
2018-10-16T22:05:49.375Z,14.93
2018-10-16T22:08:17.525Z,16.20
2018-10-16T22:10:45.669Z,18.57
2018-10-16T22:13:13.852Z,20.23
2018-10-16T22:15:41.977Z,23.07
2018-10-16T22:18:10.137Z,17.50
2018-10-16T22:20:38.301Z,18.90
2018-10-16T22:23:06.544Z,20.17
2018-10-16T22:25:34.649Z,19.43
2018-10-16T22:28:02.795Z,25.40
2018-10-16T22:30:30.929Z,22.17
2018-10-16T22:32:59.065Z,17.33
2018-10-16T22:35:27.212Z,21.40
2018-10-16T22:37:55.355Z,23.50
2018-10-16T22:40:23.485Z,16.73
2018-10-16T22:42:51.603Z,19.97
2018-10-16T22:45:19.774Z,21.37
2018-10-16T22:47:47.948Z,16.23
2018-10-16T22:50:16.117Z,16.30
2018-10-16T22:52:44.266Z,20.37
2018-10-16T22:55:12.653Z,18.97
2018-10-16T22:57:40.590Z,19.17
2018-10-16T23:00:14.237Z,18.67
2018-10-16T23:02:42.480Z,19.07
2018-10-16T23:05:10.731Z,16.83
2018-10-16T23:07:38.801Z,14.67
2018-10-16T23:10:07.046Z,17.60
2018-10-16T23:12:35.181Z,17.03
2018-10-16T23:15:03.317Z,17.80
2018-10-16T23:17:31.480Z,16.50
2018-10-16T23:19:59.624Z,15.40
2018-10-16T23:22:27.825Z,14.97
2018-10-16T23:24:56.012Z,22.57
2018-10-16T23:27:24.193Z,15.83
2018-10-16T23:29:52.365Z,19.83
2018-10-16T23:32:20.517Z,19.30
2018-10-16T23:34:48.689Z,18.87
2018-10-16T23:37:16.894Z,15.87
2018-10-16T23:39:44.977Z,19.50
2018-10-16T23:42:13.143Z,22.17
2018-10-16T23:44:41.301Z,19.20
2018-10-16T23:47:09.534Z,20.77
2018-10-16T23:49:37.576Z,18.03
2018-10-16T23:52:05.749Z,20.00
2018-10-16T23:54:33.908Z,21.20
2018-10-16T23:57:02.071Z,23.40
2018-10-16T23:59:30.241Z,19.30
